Aeroporto :
LOGIN :

Iscrizione | Disclaimer

   EN    FR    IT 

 










Sommario :    VFR   VFR Marginale   IFR   IFR Intensivo   IFR Molto Intensivo
Visibilità : 
Base nubi : 
>= 8 km
>= 3000ft
5 / 8 km
1000 / 3000 ft
1500m / 5 km
500 / 1000 ft
800 / 1500m
200 / 500 ft
< 800m
< 200 ft
Simboli :   Temporali  Nebbia  Neve Forte  Precipitazioni Forti  Vento > 20 kt
SIGMETs :   Varie  Temporali  Ghiacco  Turbolenza  Onda orograficha  Ceneri Vulcaniche






- Altitudine del aeroporto : 1649 ft
- Codice IATA : HHN


EDFH - Frankfurt-Hahn Rhineland-Palatinate

ULTIMO METAR :
  • 071520Z 30004KT 250V330 CAVOK 14/08 Q1021

METARs OBSOLETI :
  • 071450Z 32004KT 260V340 CAVOK 14/08 Q1021
  • 071420Z 28005KT 240V320 CAVOK 14/08 Q1021
  • 071350Z 32004KT 260V350 CAVOK 14/08 Q1022
  • 071320Z VRB02KT CAVOK 14/08 Q1022
  • 071250Z VRB03KT CAVOK 13/07 Q1023
  • 071220Z 27004KT 210V300 CAVOK 13/07 Q1023

TAF TAF EDFH
Valido dal 07 a 12 ore il 08 a 12 ore UTC


071100Z 0712/0812 27005KT CAVOK
PROB30
TEMPO 0803/0806 2500 BCFG
BECMG 0806/0808 28010KT
TEMPO 0806/0811 BKN010



MetMap, La meteo Aeronautica in un colpo d'occhio ! - Copyright ORBIFLY Dicembre 2007 - Disclaimer

ORBIFLY MET'MAP TEAM :

Programmazione e sviluppo : Alexandra Zaïnal
Concezione : Baudouin d'Aumeries
Supporto tecnico e logistico : Manuel Goepfert
Aiuto : Marc-Olivier Méhu
Aiuto per la traduzione : Arnaldo La Scala




FONTI E CREDITI :

   NOAA